Terminal Aerodrome Forecast
Issued by NWS Sioux Falls, SD

Home | Current Version | Previous Version | Graphics & Text | Print | Product List | Glossary On
Versions: 1 2 3 4 5 6 7 8 9 10 11 12 13 14 15 16 17
259
FTUS43 KFSD 161134
TAFHON
TAF
KHON 161134Z 1612/1712 VRB03KT P6SM SCT010 OVC100
      TEMPO 1612/1614 OVC010
     FM161400 VRB05KT 4SM SHRA BR SCT010 OVC060
     FM161800 34010KT 6SM SHRA OVC015
     FM162200 34012KT P6SM VCSH OVC020
     FM170200 34010KT P6SM BKN035
     FM170800 32009KT P6SM SCT040=

USA.gov is the U.S. government's official web portal to all federal, state and local government web resources and services.